PADL/DLG METAR and TAF weather

Enter ICAO airport designator
Station Type Date Time Source
PADL METAR 2021/07/30 07:56 UTC NOAA

PADL 300756Z AUTO 17009KT 10SM OVC075 13/12 A3011 RMK AO2 SLP198 T01330117


Station Type Date Time Source
PADL Decoded METAR 2021/07/30 07:56 UTC NOAA

Dillingham, Dillingham Airport, AK, United States (PADL) 59-03N 158-31W 29M
Jul 30, 2021 - 03:56 AM EDT / 2021.07.30 0756 UTC
Wind: from the S (170 degrees) at 10 MPH (9 KT):0
Visibility: 10 mile(s):0
Sky conditions: overcast
Temperature: 55.9 F (13.3 C)
Dew Point: 53.1 F (11.7 C)
Relative Humidity: 90%
Pressure (altimeter): 30.11 in. Hg (1019 hPa)
ob: PADL 300756Z AUTO 17009KT 10SM OVC075 13/12 A3011 RMK AO2 SLP198 T01330117
cycle: 8

Station Type Date Time Source
PADL TAF 2021/07/30 06:34 UTC NOAA

TAF PADL 300532Z 3006/3106 VRB06KT P6SM -RA OVC025
FM301200 13006KT 6SM -RA BR OVC015
FM301500 13006KT 3SM -RA BR OVC007
FM310200 15010G17KT 3SM -RA BR OVC007

Example: see airport list